Time;durP1;ratioP1;P1;durP2;ratioP2;P2;SDS_P1;SDS_P2;PMS_P1;PMS_P2;Temp;Humidity;BMP_temperature;BMP_pressure;BME280_temperature;BME280_humidity;BME280_pressure;Samples;Min_cycle;Max_cycle;Signal;HPM_P1;HPM_P2
2022/01/28 00:01:55;;;;;;;17.45;2.38;;;;;;;;;;4957070;28;20662;-81
2022/01/28 00:04:23;;;;;;;17.73;3.22;;;;;;;;;;4966127;28;20039;-81
2022/01/28 00:06:51;;;;;;;18.02;2.05;;;;;;;;;;4968311;28;20049;-81
2022/01/28 00:09:19;;;;;;;17.30;2.60;;;;;;;;;;4955879;28;20110;-81
2022/01/28 00:11:47;;;;;;;13.07;2.15;;;;;;;;;;4967442;28;20066;-81
2022/01/28 00:14:40;;;;;;;18.08;2.75;;;;;;;;;;4946672;28;20058;-81
2022/01/28 00:38:57;;;;;;;15.18;1.77;;;;;;;;;;4963863;28;19932;-81
2022/01/28 00:41:25;;;;;;;19.50;2.15;;;;;;;;;;4962269;28;20113;-81
2022/01/28 00:43:53;;;;;;;14.68;2.05;;;;;;;;;;4966861;28;20046;-81
2022/01/28 00:46:21;;;;;;;16.80;2.60;;;;;;;;;;4969065;28;20035;-82
2022/01/28 00:48:49;;;;;;;10.68;1.58;;;;;;;;;;4969840;28;20057;-81
2022/01/28 00:51:17;;;;;;;20.45;2.30;;;;;;;;;;4970470;28;20042;-82
2022/01/28 00:53:45;;;;;;;20.48;2.33;;;;;;;;;;4967955;28;20039;-81
2022/01/28 00:56:13;;;;;;;20.17;2.20;;;;;;;;;;4962949;28;20062;-81
2022/01/28 01:15:42;;;;;;;12.48;1.80;;;;;;;;;;4965307;28;20031;-81
2022/01/28 01:18:17;;;;;;;13.98;1.90;;;;;;;;;;4963031;28;20061;-81
2022/01/28 01:23:24;;;;;;;10.15;1.90;;;;;;;;;;4970503;28;20066;-81
2022/01/28 01:25:57;;;;;;;15.57;2.70;;;;;;;;;;4969830;28;20077;-81
2022/01/28 01:28:30;;;;;;;18.23;2.00;;;;;;;;;;4970992;28;20089;-81
2022/01/28 01:31:03;;;;;;;18.60;2.60;;;;;;;;;;4969314;28;20039;-81
2022/01/28 01:33:38;;;;;;;23.85;2.30;;;;;;;;;;4967310;28;20650;-81
2022/01/28 01:36:05;;;;;;;16.55;1.90;;;;;;;;;;4985007;28;20825;-81
2022/01/28 01:38:36;;;;;;;19.83;2.50;;;;;;;;;;4971032;28;20112;-81
2022/01/28 01:41:11;;;;;;;9.90;2.35;;;;;;;;;;4969284;28;20043;-81
2022/01/28 01:43:54;;;;;;;14.60;1.98;;;;;;;;;;4968229;28;20042;-81
2022/01/28 01:54:23;;;;;;;12.98;2.28;;;;;;;;;;4970353;28;20058;-81
2022/01/28 01:56:53;;;;;;;11.45;2.58;;;;;;;;;;4969931;28;20509;-82
2022/01/28 01:59:21;;;;;;;23.60;3.55;;;;;;;;;;4986159;28;20199;-81
2022/01/28 02:01:50;;;;;;;11.63;2.13;;;;;;;;;;4968168;28;20821;-81
2022/01/28 02:04:21;;;;;;;19.25;2.67;;;;;;;;;;4966094;28;20064;-81
2022/01/28 02:06:50;;;;;;;15.10;1.92;;;;;;;;;;4963274;28;20175;-81
2022/01/28 02:09:17;;;;;;;21.90;3.45;;;;;;;;;;4962635;28;20602;-81
2022/01/28 02:11:45;;;;;;;18.58;1.65;;;;;;;;;;4964612;28;20055;-81
2022/01/28 02:14:13;;;;;;;17.02;1.92;;;;;;;;;;4979537;28;20138;-81
2022/01/28 02:16:41;;;;;;;16.73;2.15;;;;;;;;;;4963319;28;20205;-81
2022/01/28 02:19:09;;;;;;;14.55;2.90;;;;;;;;;;4963374;28;20042;-81
2022/01/28 02:21:44;;;;;;;10.70;1.88;;;;;;;;;;4961621;28;20047;-81
2022/01/28 02:24:13;;;;;;;12.52;2.38;;;;;;;;;;4982821;28;20095;-81
2022/01/28 02:26:41;;;;;;;11.50;1.75;;;;;;;;;;4967916;28;20110;-81
2022/01/28 02:29:13;;;;;;;12.27;1.83;;;;;;;;;;4969808;28;21092;-81
2022/01/28 02:31:42;;;;;;;13.02;1.90;;;;;;;;;;4980748;28;20039;-81
2022/01/28 02:34:12;;;;;;;13.55;2.10;;;;;;;;;;4966148;28;20039;-81
2022/01/28 02:36:39;;;;;;;9.55;1.55;;;;;;;;;;4965117;28;20150;-81
2022/01/28 02:39:07;;;;;;;15.30;1.83;;;;;;;;;;4969683;28;20055;-81
2022/01/28 02:41:39;;;;;;;15.30;1.80;;;;;;;;;;4964842;28;20130;-81
2022/01/28 02:46:41;;;;;;;15.82;1.75;;;;;;;;;;4981571;28;20045;-80
2022/01/28 02:49:11;;;;;;;7.32;1.45;;;;;;;;;;4980499;28;20122;-80
2022/01/28 02:51:39;;;;;;;13.27;2.50;;;;;;;;;;4988557;28;20142;-80
2022/01/28 02:54:16;;;;;;;14.75;1.70;;;;;;;;;;4960998;28;20586;-80
2022/01/28 02:56:52;;;;;;;15.63;2.50;;;;;;;;;;4955735;28;20058;-80
2022/01/28 02:59:21;;;;;;;12.55;1.92;;;;;;;;;;4962122;28;20047;-80
2022/01/28 03:01:49;;;;;;;11.20;1.58;;;;;;;;;;4965902;28;20131;-80
2022/01/28 03:07:04;;;;;;;14.82;1.73;;;;;;;;;;4968220;28;20062;-81
2022/01/28 03:10:24;;;;;;;21.42;1.98;;;;;;;;;;4970338;28;20062;-80
2022/01/28 03:12:33;;;;;;;10.80;2.05;;;;;;;;;;4966717;28;20165;-80
2022/01/28 03:15:07;;;;;;;15.00;2.17;;;;;;;;;;4971601;28;20043;-80
2022/01/28 03:20:30;;;;;;;19.42;1.70;;;;;;;;;;4968646;28;20081;-81
2022/01/28 03:22:53;;;;;;;7.50;1.83;;;;;;;;;;4970865;28;20077;-80
2022/01/28 03:25:21;;;;;;;16.17;2.05;;;;;;;;;;4961738;28;21879;-80
2022/01/28 03:27:56;;;;;;;15.27;2.28;;;;;;;;;;4963529;28;20054;-80
2022/01/28 03:30:23;;;;;;;14.40;1.92;;;;;;;;;;4961512;28;20100;-81
2022/01/28 03:32:51;;;;;;;14.45;2.50;;;;;;;;;;4967720;28;20143;-80
2022/01/28 03:35:31;;;;;;;20.52;2.22;;;;;;;;;;4986002;28;20093;-80
2022/01/28 03:38:01;;;;;;;14.43;2.38;;;;;;;;;;4944917;28;20943;-80
2022/01/28 03:40:35;;;;;;;17.83;2.15;;;;;;;;;;4965071;28;20049;-80
2022/01/28 03:43:04;;;;;;;17.98;2.03;;;;;;;;;;4967195;28;20042;-81
2022/01/28 03:45:33;;;;;;;13.30;1.83;;;;;;;;;;4965575;28;20125;-80
2022/01/28 03:48:01;;;;;;;13.35;2.55;;;;;;;;;;4965340;28;20815;-80
2022/01/28 03:50:34;;;;;;;20.98;2.17;;;;;;;;;;4966093;28;20103;-80
2022/01/28 03:53:06;;;;;;;13.82;2.55;;;;;;;;;;4968059;28;20388;-81
2022/01/28 03:55:35;;;;;;;17.55;2.05;;;;;;;;;;4979950;28;20608;-81
2022/01/28 03:58:03;;;;;;;22.67;2.63;;;;;;;;;;4970838;28;20058;-81
2022/01/28 04:00:31;;;;;;;14.18;2.58;;;;;;;;;;4969778;28;20047;-81
2022/01/28 04:03:07;;;;;;;11.15;2.00;;;;;;;;;;4966396;28;20057;-80
2022/01/28 04:13:35;;;;;;;13.88;2.50;;;;;;;;;;4967864;28;20049;-81
2022/01/28 04:16:31;;;;;;;13.20;2.03;;;;;;;;;;4968948;28;20042;-81
2022/01/28 04:18:52;;;;;;;19.05;2.85;;;;;;;;;;4970710;28;20038;-81
2022/01/28 04:21:20;;;;;;;13.30;2.08;;;;;;;;;;4969979;28;20074;-80
2022/01/28 04:23:48;;;;;;;11.93;1.92;;;;;;;;;;4981804;28;20058;-80
2022/01/28 04:26:16;;;;;;;10.30;1.75;;;;;;;;;;4963310;28;20074;-81
2022/01/28 04:28:45;;;;;;;13.23;2.17;;;;;;;;;;4965678;28;20047;-81
2022/01/28 04:31:12;;;;;;;20.83;2.70;;;;;;;;;;4966227;28;20085;-80
2022/01/28 04:33:40;;;;;;;12.07;1.88;;;;;;;;;;4978671;28;20098;-80
2022/01/28 04:36:11;;;;;;;18.08;2.78;;;;;;;;;;4987786;28;20102;-81
2022/01/28 04:41:31;;;;;;;13.18;2.47;;;;;;;;;;4965639;28;20050;-81
2022/01/28 04:44:07;;;;;;;16.40;2.03;;;;;;;;;;4968797;28;20130;-81
2022/01/28 04:46:48;;;;;;;11.07;2.30;;;;;;;;;;4965131;28;20130;-81
2022/01/28 04:49:24;;;;;;;7.35;1.75;;;;;;;;;;4964126;28;20039;-81
2022/01/28 04:57:17;;;;;;;15.23;1.90;;;;;;;;;;4965914;28;20482;-81
2022/01/28 05:08:12;;;;;;;;;;;;;;;;;;4972511;28;20035;-81
2022/01/28 05:26:37;;;;;;;19.05;1.88;;;;;;;;;;4964371;28;20066;-81
2022/01/28 05:29:05;;;;;;;14.68;2.53;;;;;;;;;;4964887;28;20042;-81
2022/01/28 05:31:33;;;;;;;19.52;2.28;;;;;;;;;;4966470;28;20134;-81
2022/01/28 05:34:01;;;;;;;9.90;1.80;;;;;;;;;;4971596;28;20042;-81
2022/01/28 05:36:29;;;;;;;13.43;2.28;;;;;;;;;;4974366;28;20035;-81
2022/01/28 05:38:57;;;;;;;13.32;1.88;;;;;;;;;;4976539;28;20089;-81
2022/01/28 05:41:25;;;;;;;25.63;2.83;;;;;;;;;;4975672;28;20065;-81
2022/01/28 05:43:53;;;;;;;11.15;1.90;;;;;;;;;;4947215;28;20510;-81
2022/01/28 05:46:21;;;;;;;12.38;2.50;;;;;;;;;;4976718;28;20047;-81
2022/01/28 05:48:49;;;;;;;16.45;2.20;;;;;;;;;;4963629;28;20076;-81
2022/01/28 05:51:18;;;;;;;13.73;1.98;;;;;;;;;;4964515;28;20047;-81
2022/01/28 05:53:47;;;;;;;18.52;2.30;;;;;;;;;;4964671;28;20050;-81
2022/01/28 05:56:15;;;;;;;11.68;1.58;;;;;;;;;;4963127;28;20112;-81
2022/01/28 05:58:43;;;;;;;11.27;2.20;;;;;;;;;;4966553;28;20133;-81
2022/01/28 06:01:11;;;;;;;27.05;2.53;;;;;;;;;;4963306;28;20034;-81
2022/01/28 06:03:39;;;;;;;16.35;2.30;;;;;;;;;;4968478;28;20049;-81
2022/01/28 06:06:08;;;;;;;17.88;2.35;;;;;;;;;;4970755;28;20921;-81
2022/01/28 06:08:35;;;;;;;26.05;2.53;;;;;;;;;;4972723;28;20039;-81
2022/01/28 06:11:03;;;;;;;17.95;2.42;;;;;;;;;;4970665;28;20141;-81
2022/01/28 06:13:31;;;;;;;12.80;2.28;;;;;;;;;;4970049;28;20045;-81
2022/01/28 06:15:59;;;;;;;12.40;2.28;;;;;;;;;;4968954;28;20039;-81
2022/01/28 06:18:27;;;;;;;13.80;2.45;;;;;;;;;;4984082;28;20035;-81
2022/01/28 06:20:55;;;;;;;12.23;1.80;;;;;;;;;;4986939;28;20040;-81
2022/01/28 06:23:23;;;;;;;16.25;2.67;;;;;;;;;;4971529;28;21176;-81
2022/01/28 06:25:51;;;;;;;16.55;2.42;;;;;;;;;;4979692;28;20055;-81
2022/01/28 06:28:19;;;;;;;25.88;2.00;;;;;;;;;;4974272;28;20043;-81
2022/01/28 06:30:47;;;;;;;8.85;1.95;;;;;;;;;;4972902;28;20344;-81
2022/01/28 06:33:16;;;;;;;11.77;1.80;;;;;;;;;;4971166;28;20042;-82
2022/01/28 06:35:45;;;;;;;14.70;2.55;;;;;;;;;;4972206;28;20043;-81
2022/01/28 06:38:14;;;;;;;15.15;2.25;;;;;;;;;;4973426;28;20034;-81
2022/01/28 06:40:43;;;;;;;13.13;1.90;;;;;;;;;;4973564;28;20049;-81
2022/01/28 06:43:12;;;;;;;17.75;2.10;;;;;;;;;;4971682;28;20050;-81
2022/01/28 06:45:43;;;;;;;12.05;2.33;;;;;;;;;;4963378;28;20045;-81
2022/01/28 06:48:12;;;;;;;20.00;1.98;;;;;;;;;;4963361;28;20053;-81
2022/01/28 06:50:43;;;;;;;16.77;1.90;;;;;;;;;;4961936;28;20055;-81
2022/01/28 06:53:14;;;;;;;13.63;2.10;;;;;;;;;;4965260;28;20051;-81
2022/01/28 06:55:43;;;;;;;17.70;1.92;;;;;;;;;;4960749;28;20097;-81
2022/01/28 06:58:11;;;;;;;11.52;2.08;;;;;;;;;;4966606;28;20042;-81
2022/01/28 07:00:40;;;;;;;16.33;2.65;;;;;;;;;;4976406;28;20051;-81
2022/01/28 07:03:10;;;;;;;13.75;1.90;;;;;;;;;;4968278;28;20050;-81
2022/01/28 07:05:37;;;;;;;17.33;2.20;;;;;;;;;;4959477;28;20480;-81
2022/01/28 07:08:06;;;;;;;22.73;3.50;;;;;;;;;;4957599;28;20027;-81
2022/01/28 07:10:33;;;;;;;18.15;1.90;;;;;;;;;;4964383;28;20051;-81
2022/01/28 07:13:01;;;;;;;16.65;2.13;;;;;;;;;;4968494;28;20077;-81
2022/01/28 07:15:29;;;;;;;13.93;1.80;;;;;;;;;;4963749;28;20039;-81
2022/01/28 07:18:02;;;;;;;17.38;2.58;;;;;;;;;;4962038;28;21620;-81
2022/01/28 07:20:33;;;;;;;18.45;2.72;;;;;;;;;;4975843;28;20505;-81
2022/01/28 07:23:01;;;;;;;13.68;2.20;;;;;;;;;;4965784;28;20043;-81
2022/01/28 07:25:29;;;;;;;14.35;2.00;;;;;;;;;;4962268;28;20051;-81
2022/01/28 07:27:57;;;;;;;15.25;1.92;;;;;;;;;;4962868;28;20047;-81
2022/01/28 07:30:25;;;;;;;15.45;1.98;;;;;;;;;;4965250;28;20066;-83
2022/01/28 07:33:14;;;;;;;20.20;2.83;;;;;;;;;;4962889;28;20046;-85
2022/01/28 07:35:41;;;;;;;13.90;2.65;;;;;;;;;;4945403;28;20050;-84
2022/01/28 07:38:10;;;;;;;13.88;1.95;;;;;;;;;;4969432;28;20062;-82
2022/01/28 07:40:37;;;;;;;14.00;2.90;;;;;;;;;;4974056;28;20513;-83
2022/01/28 07:43:05;;;;;;;13.15;1.95;;;;;;;;;;4969464;28;20579;-82
2022/01/28 07:45:33;;;;;;;21.70;2.30;;;;;;;;;;4972653;28;20047;-82
2022/01/28 07:48:01;;;;;;;17.30;2.30;;;;;;;;;;4972905;28;20096;-82
2022/01/28 07:50:29;;;;;;;16.65;1.95;;;;;;;;;;4978262;28;20046;-82
2022/01/28 07:52:57;;;;;;;17.65;2.78;;;;;;;;;;4968432;28;20027;-82
2022/01/28 07:55:25;;;;;;;22.65;2.75;;;;;;;;;;4981841;28;20498;-82
2022/01/28 07:57:53;;;;;;;14.82;2.28;;;;;;;;;;4970988;28;20046;-82
2022/01/28 08:00:26;;;;;;;19.95;2.15;;;;;;;;;;4971427;28;20043;-82
2022/01/28 08:02:59;;;;;;;16.02;2.67;;;;;;;;;;4973343;28;20050;-82
2022/01/28 08:05:27;;;;;;;21.05;3.00;;;;;;;;;;4990557;28;20070;-83
2022/01/28 08:07:55;;;;;;;15.30;2.05;;;;;;;;;;4973684;28;20058;-82
2022/01/28 08:10:23;;;;;;;12.50;2.47;;;;;;;;;;4970397;28;20043;-83
2022/01/28 08:13:05;;;;;;;22.50;2.80;;;;;;;;;;4979273;28;20053;-84
2022/01/28 08:15:43;;;;;;;16.20;2.40;;;;;;;;;;4983775;28;20046;-82
2022/01/28 08:18:11;;;;;;;17.45;1.80;;;;;;;;;;4971266;28;20046;-82
2022/01/28 08:20:39;;;;;;;18.02;1.92;;;;;;;;;;4982734;28;20520;-85
2022/01/28 08:23:07;;;;;;;16.00;2.58;;;;;;;;;;4968846;28;20046;-83
2022/01/28 08:25:35;;;;;;;9.52;1.88;;;;;;;;;;4966723;28;20035;-83
2022/01/28 08:28:04;;;;;;;17.40;2.67;;;;;;;;;;4982903;28;20919;-83
2022/01/28 08:30:33;;;;;;;26.38;3.28;;;;;;;;;;4982438;28;20105;-83
2022/01/28 08:33:01;;;;;;;15.43;2.13;;;;;;;;;;4969140;28;20130;-83
2022/01/28 08:35:31;;;;;;;19.08;2.92;;;;;;;;;;4985784;28;20075;-83
2022/01/28 08:38:14;;;;;;;17.65;2.53;;;;;;;;;;4968383;28;20367;-83
2022/01/28 08:40:41;;;;;;;12.52;1.92;;;;;;;;;;4968250;28;20034;-82
2022/01/28 08:43:09;;;;;;;18.33;2.60;;;;;;;;;;4970004;28;21297;-82
2022/01/28 08:45:37;;;;;;;15.35;2.05;;;;;;;;;;4968045;28;20105;-82
2022/01/28 08:48:05;;;;;;;13.77;2.65;;;;;;;;;;4966429;28;20046;-82
2022/01/28 08:50:37;;;;;;;16.13;2.38;;;;;;;;;;4966146;28;20043;-82
2022/01/28 08:53:10;;;;;;;19.17;2.20;;;;;;;;;;4966490;28;20123;-82
2022/01/28 08:55:38;;;;;;;17.00;2.28;;;;;;;;;;4983859;28;20049;-82
2022/01/28 08:58:07;;;;;;;19.25;3.58;;;;;;;;;;4968448;28;20034;-82
2022/01/28 09:00:35;;;;;;;23.67;2.97;;;;;;;;;;4986510;28;20129;-82
2022/01/28 09:03:03;;;;;;;15.82;2.10;;;;;;;;;;4968768;28;20105;-83
2022/01/28 09:05:33;;;;;;;15.40;2.15;;;;;;;;;;4950078;28;20047;-82
2022/01/28 09:08:07;;;;;;;20.40;3.15;;;;;;;;;;4966038;28;20582;-82
2022/01/28 09:10:41;;;;;;;16.92;3.13;;;;;;;;;;4965431;28;20041;-82
2022/01/28 09:13:23;;;;;;;30.30;2.88;;;;;;;;;;4987203;28;20054;-82
2022/01/28 09:15:54;;;;;;;20.48;2.20;;;;;;;;;;4965480;28;20414;-82
2022/01/28 09:18:24;;;;;;;13.95;2.20;;;;;;;;;;4965790;28;20115;-81
2022/01/28 09:20:53;;;;;;;22.05;3.35;;;;;;;;;;4965088;28;20120;-83
2022/01/28 09:23:21;;;;;;;25.52;2.55;;;;;;;;;;4966961;28;20501;-84
2022/01/28 09:25:49;;;;;;;20.60;2.30;;;;;;;;;;4968519;28;20042;-83
2022/01/28 09:28:17;;;;;;;18.83;1.98;;;;;;;;;;4987531;28;20070;-83
2022/01/28 09:30:45;;;;;;;14.68;2.78;;;;;;;;;;4991064;28;20094;-83
2022/01/28 09:33:13;;;;;;;20.65;2.47;;;;;;;;;;4969277;28;20042;-83
2022/01/28 09:35:41;;;;;;;13.68;3.20;;;;;;;;;;4975454;28;20055;-82
2022/01/28 09:38:09;;;;;;;21.20;2.42;;;;;;;;;;4991349;28;20070;-82
2022/01/28 09:40:37;;;;;;;14.57;2.10;;;;;;;;;;4971705;28;20051;-83
2022/01/28 09:43:07;;;;;;;18.67;3.05;;;;;;;;;;4969229;28;20043;-83
2022/01/28 09:45:35;;;;;;;18.25;2.20;;;;;;;;;;4982906;28;20983;-83
2022/01/28 09:48:03;;;;;;;20.52;2.75;;;;;;;;;;4968363;28;20031;-82
2022/01/28 09:50:35;;;;;;;12.82;2.10;;;;;;;;;;4965185;28;20050;-82
2022/01/28 09:53:05;;;;;;;14.30;2.70;;;;;;;;;;4964289;28;20307;-83
2022/01/28 09:55:33;;;;;;;23.75;3.30;;;;;;;;;;4964257;28;20070;-83
2022/01/28 09:58:01;;;;;;;14.10;2.03;;;;;;;;;;4965632;28;20047;-82
2022/01/28 10:00:31;;;;;;;20.65;2.75;;;;;;;;;;4971832;28;20490;-83
2022/01/28 10:03:08;;;;;;;17.77;2.63;;;;;;;;;;4973451;28;20077;-82
2022/01/28 10:05:39;;;;;;;16.00;2.33;;;;;;;;;;4969730;28;20074;-83
2022/01/28 10:08:09;;;;;;;10.77;2.03;;;;;;;;;;4972449;28;20034;-82
2022/01/28 10:10:40;;;;;;;18.70;2.65;;;;;;;;;;4972025;28;20129;-83
2022/01/28 10:13:11;;;;;;;18.55;2.47;;;;;;;;;;4973985;28;20050;-82
2022/01/28 10:15:55;;;;;;;15.80;2.30;;;;;;;;;;4986392;28;20078;-82
2022/01/28 10:18:44;;;;;;;15.77;2.85;;;;;;;;;;4974671;28;20110;-82
2022/01/28 10:21:19;;;;;;;17.63;2.15;;;;;;;;;;4971580;28;20057;-82
2022/01/28 10:24:08;;;;;;;11.15;2.15;;;;;;;;;;4971596;28;20038;-82
2022/01/28 10:26:51;;;;;;;14.45;1.85;;;;;;;;;;4970054;28;20089;-82
2022/01/28 10:29:23;;;;;;;14.68;2.33;;;;;;;;;;4972104;28;20453;-82
2022/01/28 10:32:02;;;;;;;16.08;2.40;;;;;;;;;;4970528;28;20042;-82
2022/01/28 10:34:32;;;;;;;17.95;1.85;;;;;;;;;;4973894;28;20105;-83
2022/01/28 10:37:28;;;;;;;15.35;1.90;;;;;;;;;;4986546;28;20034;-82
2022/01/28 10:40:06;;;;;;;13.63;1.90;;;;;;;;;;4968580;28;20664;-83
2022/01/28 10:42:36;;;;;;;14.57;2.08;;;;;;;;;;4971387;28;20117;-82
2022/01/28 10:45:13;;;;;;;16.38;2.05;;;;;;;;;;4972207;28;20093;-82
2022/01/28 10:47:49;;;;;;;20.23;2.17;;;;;;;;;;4972066;28;20074;-82
2022/01/28 10:50:30;;;;;;;16.10;2.95;;;;;;;;;;4975313;28;20038;-83
2022/01/28 10:53:10;;;;;;;20.38;1.60;;;;;;;;;;4971272;28;20051;-82
2022/01/28 10:55:52;;;;;;;11.20;2.05;;;;;;;;;;4970904;28;20167;-82
2022/01/28 10:58:25;;;;;;;14.63;2.15;;;;;;;;;;4972028;28;20047;-82
2022/01/28 11:00:59;;;;;;;17.65;2.20;;;;;;;;;;4957194;28;20038;-82
2022/01/28 11:03:27;;;;;;;13.98;2.08;;;;;;;;;;4971697;28;20070;-83
2022/01/28 11:06:00;;;;;;;11.20;2.75;;;;;;;;;;4963663;28;20502;-82
2022/01/28 11:08:31;;;;;;;10.52;2.72;;;;;;;;;;4987325;28;20046;-82
2022/01/28 11:11:01;;;;;;;11.10;2.15;;;;;;;;;;4972255;28;20038;-82
2022/01/28 11:13:30;;;;;;;14.57;1.80;;;;;;;;;;4966483;28;20050;-82
2022/01/28 11:15:57;;;;;;;15.38;1.85;;;;;;;;;;4963204;28;20046;-82
2022/01/28 11:18:27;;;;;;;17.73;2.30;;;;;;;;;;4964837;28;20037;-82
2022/01/28 11:21:02;;;;;;;10.02;2.70;;;;;;;;;;4965696;28;20074;-82
2022/01/28 11:23:51;;;;;;;9.82;1.80;;;;;;;;;;4970388;28;20129;-82
2022/01/28 11:26:35;;;;;;;12.32;1.90;;;;;;;;;;4968818;28;20043;-82
2022/01/28 11:29:19;;;;;;;17.20;2.50;;;;;;;;;;4973222;28;20074;-82
2022/01/28 11:31:50;;;;;;;13.90;2.10;;;;;;;;;;4965445;28;20047;-82
2022/01/28 11:34:23;;;;;;;15.45;3.92;;;;;;;;;;4965901;28;20047;-82
2022/01/28 11:36:54;;;;;;;13.00;2.22;;;;;;;;;;4960664;28;20106;-82
2022/01/28 11:39:37;;;;;;;11.93;1.83;;;;;;;;;;4961593;28;20802;-82
2022/01/28 11:42:45;;;;;;;7.03;1.85;;;;;;;;;;4960597;28;20046;-82
2022/01/28 11:45:14;;;;;;;11.68;1.83;;;;;;;;;;4869923;29;20063;-83
2022/01/28 11:47:53;;;;;;;9.75;1.85;;;;;;;;;;4883042;29;20101;-83
2022/01/28 11:50:23;;;;;;;8.50;1.65;;;;;;;;;;4869476;29;20061;-82
2022/01/28 11:52:53;;;;;;;15.57;1.90;;;;;;;;;;4872135;29;20048;-83
2022/01/28 11:55:21;;;;;;;8.48;2.17;;;;;;;;;;4884964;29;20053;-83
2022/01/28 11:58:03;;;;;;;16.92;2.72;;;;;;;;;;4879486;29;20785;-84
2022/01/28 12:00:41;;;;;;;13.40;1.60;;;;;;;;;;4893323;29;20044;-83
2022/01/28 12:03:18;;;;;;;11.10;1.73;;;;;;;;;;4888111;29;20074;-83
2022/01/28 12:05:45;;;;;;;11.13;1.95;;;;;;;;;;4869996;29;20056;-83
2022/01/28 12:08:15;;;;;;;15.38;1.65;;;;;;;;;;4869106;29;20040;-83
2022/01/28 12:10:45;;;;;;;8.63;1.60;;;;;;;;;;4868795;29;20195;-83
2022/01/28 12:13:17;;;;;;;10.23;2.10;;;;;;;;;;4888708;29;20045;-83
2022/01/28 12:16:14;;;;;;;13.80;2.33;;;;;;;;;;4917376;28;20141;-82
2022/01/28 12:18:49;;;;;;;11.20;1.77;;;;;;;;;;4977334;28;20062;-82
2022/01/28 12:21:25;;;;;;;9.15;2.35;;;;;;;;;;4960846;28;20039;-82
2022/01/28 12:24:14;;;;;;;12.77;2.08;;;;;;;;;;4964174;28;20097;-82
2022/01/28 12:27:07;;;;;;;7.80;1.50;;;;;;;;;;4959239;28;20074;-82
2022/01/28 12:29:43;;;;;;;11.13;1.65;;;;;;;;;;4977056;28;20035;-82
2022/01/28 12:32:11;;;;;;;9.90;1.38;;;;;;;;;;4962568;28;20113;-83
2022/01/28 12:34:46;;;;;;;6.57;1.77;;;;;;;;;;4969248;28;20430;-83
2022/01/28 12:37:20;;;;;;;13.55;1.55;;;;;;;;;;4967463;28;20042;-82
2022/01/28 12:39:56;;;;;;;13.60;2.67;;;;;;;;;;4961740;28;20185;-85
2022/01/28 12:42:34;;;;;;;11.07;2.17;;;;;;;;;;4962397;28;20047;-85
2022/01/28 12:45:34;;;;;;;11.85;2.70;;;;;;;;;;4884876;29;20048;-85
2022/01/28 12:48:03;;;;;;;13.25;1.90;;;;;;;;;;4908752;29;20053;-86
2022/01/28 12:50:32;;;;;;;12.68;2.15;;;;;;;;;;4908207;29;20539;-85
2022/01/28 12:53:08;;;;;;;11.23;1.80;;;;;;;;;;4894768;29;20439;-85
2022/01/28 12:55:37;;;;;;;14.75;1.75;;;;;;;;;;4908589;29;20050;-85
2022/01/28 12:58:12;;;;;;;21.42;2.60;;;;;;;;;;4909695;29;20126;-85
2022/01/28 13:00:41;;;;;;;12.88;1.63;;;;;;;;;;4908035;29;20084;-85
2022/01/28 13:03:24;;;;;;;12.52;1.80;;;;;;;;;;4906803;29;20044;-87
2022/01/28 13:05:57;;;;;;;10.65;1.77;;;;;;;;;;4896069;29;20067;-85
2022/01/28 13:08:27;;;;;;;13.25;2.10;;;;;;;;;;4910059;29;20040;-85
2022/01/28 13:10:56;;;;;;;10.10;1.92;;;;;;;;;;4902591;29;20056;-85
2022/01/28 13:13:25;;;;;;;14.52;1.92;;;;;;;;;;4909537;29;20043;-86
2022/01/28 13:15:54;;;;;;;23.23;2.95;;;;;;;;;;4916308;29;20058;-85
2022/01/28 13:18:23;;;;;;;15.68;2.20;;;;;;;;;;4923786;29;20052;-85
2022/01/28 13:20:53;;;;;;;14.00;2.00;;;;;;;;;;4927195;29;20032;-85
2022/01/28 13:23:32;;;;;;;14.50;2.03;;;;;;;;;;4924991;29;20059;-85
2022/01/28 13:26:05;;;;;;;17.45;2.05;;;;;;;;;;4922409;29;20056;-85
2022/01/28 13:28:35;;;;;;;13.23;1.95;;;;;;;;;;4925789;29;20040;-85
2022/01/28 13:31:04;;;;;;;13.75;2.00;;;;;;;;;;4909998;29;20040;-84
2022/01/28 13:33:32;;;;;;;11.25;1.80;;;;;;;;;;4913227;29;20145;-85
2022/01/28 13:36:02;;;;;;;14.65;1.50;;;;;;;;;;4953405;28;20066;-84
2022/01/28 13:38:36;;;;;;;8.45;1.92;;;;;;;;;;4945350;28;20414;-85
2022/01/28 13:41:55;;;;;;;17.52;2.88;;;;;;;;;;4960316;28;20613;-84
2022/01/28 13:45:39;;;;;;;18.13;2.67;;;;;;;;;;4892379;29;20596;-85
2022/01/28 13:48:32;;;;;;;19.88;2.83;;;;;;;;;;4918834;29;20060;-85
2022/01/28 13:51:11;;;;;;;12.60;2.33;;;;;;;;;;4924293;29;20044;-85
2022/01/28 13:56:41;;;;;;;18.33;1.90;;;;;;;;;;4902681;29;20043;-84
2022/01/28 13:59:16;;;;;;;20.40;2.97;;;;;;;;;;4903729;29;20056;-84
2022/01/28 14:02:30;;;;;;;9.02;1.80;;;;;;;;;;4910979;29;20382;-85
2022/01/28 14:06:02;;;;;;;12.20;2.15;;;;;;;;;;4901304;29;20449;-84
2022/01/28 14:08:54;;;;;;;19.15;2.22;;;;;;;;;;4900397;29;20062;-85
2022/01/28 14:11:59;;;;;;;13.38;2.00;;;;;;;;;;4889345;29;20076;-86
2022/01/28 14:16:12;;;;;;;13.10;2.15;;;;;;;;;;4891930;29;20496;-86
2022/01/28 14:18:58;;;;;;;12.45;2.10;;;;;;;;;;4888902;29;20087;-86
2022/01/28 14:25:40;;;;;;;11.40;2.10;;;;;;;;;;4886449;29;20049;-84
2022/01/28 14:28:37;;;;;;;23.75;2.60;;;;;;;;;;4886102;29;20062;-84
2022/01/28 14:31:08;;;;;;;13.80;2.10;;;;;;;;;;4884300;29;20060;-85
2022/01/28 14:33:36;;;;;;;22.45;2.58;;;;;;;;;;4889190;29;20123;-85
2022/01/28 14:36:04;;;;;;;17.35;1.95;;;;;;;;;;4887028;29;20074;-84
2022/01/28 14:38:32;;;;;;;17.67;2.70;;;;;;;;;;4888735;29;20068;-83
2022/01/28 14:41:00;;;;;;;13.95;2.08;;;;;;;;;;4887343;29;20053;-83
2022/01/28 14:43:28;;;;;;;11.52;2.20;;;;;;;;;;4888894;29;20052;-83
2022/01/28 14:45:56;;;;;;;19.15;2.60;;;;;;;;;;4885481;29;20077;-82
2022/01/28 14:48:26;;;;;;;13.32;2.60;;;;;;;;;;4885829;29;20052;-83
2022/01/28 14:50:54;;;;;;;18.98;2.25;;;;;;;;;;4884008;29;20171;-83
2022/01/28 14:53:21;;;;;;;10.65;2.88;;;;;;;;;;4891557;29;20082;-83
2022/01/28 14:55:50;;;;;;;19.00;2.47;;;;;;;;;;4921444;29;20138;-83
2022/01/28 14:58:17;;;;;;;11.63;2.17;;;;;;;;;;4923739;29;20044;-83
2022/01/28 15:00:45;;;;;;;14.38;1.98;;;;;;;;;;4923292;29;20047;-83
2022/01/28 15:03:13;;;;;;;18.45;3.05;;;;;;;;;;4926908;29;20080;-83
2022/01/28 15:05:41;;;;;;;17.83;2.25;;;;;;;;;;4926321;29;20075;-83
2022/01/28 15:08:11;;;;;;;17.27;2.10;;;;;;;;;;4921399;29;20067;-83
2022/01/28 15:10:40;;;;;;;20.83;2.65;;;;;;;;;;4920056;29;20036;-83
2022/01/28 15:13:07;;;;;;;14.80;2.92;;;;;;;;;;4927525;29;20056;-83
2022/01/28 15:15:39;;;;;;;12.88;2.28;;;;;;;;;;4903953;29;20055;-83
2022/01/28 15:18:07;;;;;;;10.90;2.05;;;;;;;;;;4919217;29;20134;-83
2022/01/28 15:20:38;;;;;;;14.50;2.03;;;;;;;;;;4921788;29;20067;-83
2022/01/28 15:23:06;;;;;;;12.00;2.25;;;;;;;;;;4922923;29;20610;-83
2022/01/28 15:25:33;;;;;;;12.93;2.08;;;;;;;;;;4923064;29;20094;-83
2022/01/28 15:28:01;;;;;;;15.18;3.08;;;;;;;;;;4924239;29;20537;-83
2022/01/28 15:34:16;;;;;;;9.52;1.95;;;;;;;;;;4921587;29;20530;-83
2022/01/28 15:36:44;;;;;;;11.60;1.92;;;;;;;;;;4922082;29;20063;-83
2022/01/28 15:39:12;;;;;;;15.20;2.50;;;;;;;;;;4921333;29;20059;-83
2022/01/28 15:41:40;;;;;;;12.70;1.95;;;;;;;;;;4921638;29;20048;-83
2022/01/28 15:44:09;;;;;;;15.55;2.08;;;;;;;;;;4911477;29;20062;-83
2022/01/28 15:46:38;;;;;;;13.02;1.95;;;;;;;;;;4922791;29;20048;-83
2022/01/28 15:49:07;;;;;;;11.65;2.25;;;;;;;;;;4892962;29;20039;-83
2022/01/28 15:51:36;;;;;;;17.10;2.55;;;;;;;;;;4908721;29;20059;-83
2022/01/28 15:54:41;;;;;;;14.43;1.98;;;;;;;;;;4926563;29;20059;-83
2022/01/28 16:01:02;;;;;;;18.83;1.83;;;;;;;;;;4849641;29;20053;-83
2022/01/28 16:04:22;;;;;;;14.90;2.30;;;;;;;;;;4851907;29;20141;-83
2022/01/28 16:11:19;;;;;;;13.65;2.22;;;;;;;;;;4748080;23;20046;-83
2022/01/28 16:14:12;;;;;;;19.50;2.70;;;;;;;;;;4989065;28;20935;-83
2022/01/28 16:19:37;;;;;;;9.13;2.20;;;;;;;;;;4971402;28;20097;-83
2022/01/28 16:22:08;;;;;;;16.42;3.30;;;;;;;;;;4975207;28;20516;-83
2022/01/28 16:24:35;;;;;;;23.75;4.13;;;;;;;;;;4990767;28;20061;-83
2022/01/28 16:27:04;;;;;;;9.90;2.83;;;;;;;;;;4967747;28;20042;-83
2022/01/28 16:29:45;;;;;;;15.45;3.85;;;;;;;;;;4966363;28;20035;-83
2022/01/28 16:32:24;;;;;;;13.90;3.50;;;;;;;;;;4960387;28;20050;-83
2022/01/28 16:35:22;;;;;;;;;;;;;;;;;;5038935;28;20382;-81
2022/01/28 16:37:51;;;;;;;14.55;3.58;;;;;;;;;;5040840;28;19936;-84
2022/01/28 16:40:38;;;;;;;;;;;;;;;;;;5037729;28;20053;-81
2022/01/28 16:43:08;;;;;;;10.68;3.60;;;;;;;;;;5057134;28;19921;-81
2022/01/28 16:45:36;;;;;;;17.75;3.40;;;;;;;;;;5038818;28;20029;-80
2022/01/28 16:48:04;;;;;;;16.17;3.42;;;;;;;;;;5041210;28;20091;-79
2022/01/28 16:50:38;;;;;;;18.45;3.20;;;;;;;;;;5038948;28;20235;-80
2022/01/28 16:53:07;;;;;;;24.30;3.78;;;;;;;;;;5039429;28;20037;-80
2022/01/28 16:55:35;;;;;;;16.13;2.10;;;;;;;;;;5056833;28;20056;-80
2022/01/28 16:58:05;;;;;;;13.25;2.67;;;;;;;;;;5045679;28;20085;-81
2022/01/28 17:00:33;;;;;;;12.27;3.55;;;;;;;;;;5037036;28;20045;-80
2022/01/28 17:03:02;;;;;;;15.88;2.60;;;;;;;;;;5038865;28;20055;-80
2022/01/28 17:05:30;;;;;;;18.48;2.70;;;;;;;;;;5036045;28;20118;-81